»·PEaware :: AAL3763 KSFO-KSAN

AAL3763 :: KSFO-KSAN

FLIGHT INFORMATION

Flight Status: Arrived
Operator:
American Airlines
More flights by this operator :: More flights under this callsign
Pilot: Sergei F. (8485)
Aircraft: AIRBUS A320
(A320)
More flights by this aircraft type
Origin: KSFO San Francisco Intl
United States
Destination: KSAN San Diego Intl-Lindbergh
United States
More flights between these airports :: More routes between these airports
Route: +OFFSH2 MCKEY LAX COMIX2
File this flight plan on PilotEdge
Remarks:
Altitude:
(Current/Filed)
35,000ft
Speed:
(Current/Filed)
400kts
Departed: 07-Jan-20 09:28 PM
Arrived: 07-Jan-20 10:37 PM
Distance/Time
Traveled:
388nm/1:09
Distance/Time
To Go:
Arrived

Flight Plot

Page will automatically refresh every two minutes.

Flight plan parsing failed; only flown route is shown


Map Options




Map Legend


Flown Route
Filed Route
Departure Airport
Arrival Airport
Navaid (VOR, NDB)
Fix

Horizontal Profiles

Position Reports

Time Latitude Longitude Heading Altitude Ground
Speed
07-Jan-20 20:53 37.616757 -122.381711 21 32ft 0kts
07-Jan-20 20:54 37.616757 -122.381711 21 32ft 0kts
07-Jan-20 20:55 37.616757 -122.381711 21 32ft 0kts
07-Jan-20 20:56 37.616757 -122.381711 21 32ft 0kts
07-Jan-20 20:57 37.616757 -122.381711 21 32ft 0kts
07-Jan-20 20:58 37.616757 -122.381711 21 32ft 0kts
07-Jan-20 20:59 37.616757 -122.381711 21 32ft 0kts
07-Jan-20 21:00 37.616757 -122.381711 21 32ft 0kts
07-Jan-20 21:01 37.616757 -122.381711 21 32ft 0kts
07-Jan-20 21:02 37.616757 -122.381711 21 32ft 0kts
07-Jan-20 21:03 37.616757 -122.381711 21 32ft 0kts
07-Jan-20 21:04 37.616757 -122.381711 21 32ft 0kts
07-Jan-20 21:05 37.616757 -122.381711 21 32ft 0kts
07-Jan-20 21:06 37.616757 -122.381711 21 32ft 0kts
07-Jan-20 21:07 37.616757 -122.381711 21 32ft 0kts
07-Jan-20 21:08 37.616757 -122.381711 21 32ft 0kts
07-Jan-20 21:09 37.616757 -122.381711 21 32ft 0kts
07-Jan-20 21:10 37.616757 -122.381711 21 32ft 0kts
07-Jan-20 21:11 37.616757 -122.381711 21 32ft 0kts
07-Jan-20 21:12 37.616757 -122.381711 21 32ft 0kts
07-Jan-20 21:14 37.616757 -122.381711 21 32ft 0kts
07-Jan-20 21:15 37.616757 -122.381711 21 32ft 0kts
07-Jan-20 21:16 37.616634 -122.381769 20 32ft 1kts
07-Jan-20 21:17 37.616217 -122.382032 61 32ft 2kts
07-Jan-20 21:18 37.616063 -122.382007 117 32ft 7kts
07-Jan-20 21:19 37.615763 -122.381288 117 32ft 0kts
07-Jan-20 21:20 37.615763 -122.381288 118 32ft 0kts
07-Jan-20 21:21 37.615763 -122.381288 118 32ft 0kts
07-Jan-20 21:22 37.615640 -122.380995 117 32ft 5kts
07-Jan-20 21:23 37.613977 -122.381393 207 32ft 10kts
07-Jan-20 21:24 37.611200 -122.383231 208 32ft 10kts
07-Jan-20 21:25 37.609144 -122.384798 183 32ft 7kts
07-Jan-20 21:26 37.608253 -122.383318 117 31ft 6kts
07-Jan-20 21:27 37.609827 -122.381648 27 29ft 40kts
07-Jan-20 21:28 37.650272 -122.362256 2 1721ft 202kts
07-Jan-20 21:29 37.711525 -122.374188 306 4931ft 236kts
07-Jan-20 21:30 37.698626 -122.444268 218 8309ft 246kts
07-Jan-20 21:31 37.642310 -122.495435 218 11183ft 273kts
07-Jan-20 21:32 37.577051 -122.559047 217 13003ft 325kts
07-Jan-20 21:33 37.498721 -122.634716 219 15510ft 339kts
07-Jan-20 21:34 37.411932 -122.684233 177 17665ft 374kts
07-Jan-20 21:34 37.326232 -122.661447 174 19300ft 387kts
07-Jan-20 21:36 37.202585 -122.630463 175 21371ft 399kts
07-Jan-20 21:36 37.111296 -122.608102 174 22711ft 407kts
07-Jan-20 21:38 36.979680 -122.575774 174 24217ft 424kts
07-Jan-20 21:38 36.882962 -122.550936 174 25349ft 432kts
07-Jan-20 21:39 36.764506 -122.520276 174 26653ft 440kts
07-Jan-20 21:41 36.623977 -122.483962 174 28081ft 447kts
07-Jan-20 21:41 36.522489 -122.457559 174 28893ft 454kts
07-Jan-20 21:42 36.404289 -122.399145 145 29923ft 485kts
07-Jan-20 21:43 36.312883 -122.272298 136 30948ft 495kts
07-Jan-20 21:44 36.224856 -122.144000 137 32028ft 492kts
07-Jan-20 21:45 36.138100 -122.018163 137 33009ft 490kts
07-Jan-20 21:46 36.050674 -121.891817 137 33909ft 488kts
07-Jan-20 21:47 35.963021 -121.765747 137 34736ft 487kts
07-Jan-20 21:48 35.875559 -121.640241 137 35230ft 486kts
07-Jan-20 21:49 35.787619 -121.514618 137 35185ft 486kts
07-Jan-20 21:50 35.699126 -121.388766 138 35156ft 485kts
07-Jan-20 21:51 35.611655 -121.264686 138 35140ft 483kts
07-Jan-20 21:52 35.524178 -121.141053 138 35133ft 483kts
07-Jan-20 21:53 35.442241 -121.010688 131 35150ft 492kts
07-Jan-20 21:54 35.368137 -120.879391 131 35193ft 494kts
07-Jan-20 21:55 35.289912 -120.741581 131 35206ft 496kts
07-Jan-20 21:56 35.214163 -120.608569 131 35222ft 496kts
07-Jan-20 21:57 35.137628 -120.474760 131 35217ft 496kts
07-Jan-20 21:58 35.060065 -120.339627 131 35204ft 496kts
07-Jan-20 21:59 34.988401 -120.215306 131 35190ft 494kts
07-Jan-20 22:00 34.909166 -120.078123 130 35169ft 494kts
07-Jan-20 22:01 34.832029 -119.945493 131 35166ft 493kts
07-Jan-20 22:02 34.752168 -119.808611 131 35098ft 500kts
07-Jan-20 22:03 34.672109 -119.671699 131 35125ft 502kts
07-Jan-20 22:04 34.591666 -119.534679 131 35146ft 503kts
07-Jan-20 22:05 34.512029 -119.399468 131 35149ft 502kts
07-Jan-20 22:06 34.439850 -119.277411 132 35151ft 501kts
07-Jan-20 22:07 34.357184 -119.138089 132 35125ft 500kts
07-Jan-20 22:08 34.276394 -119.002566 132 35126ft 500kts
07-Jan-20 22:09 34.196085 -118.868207 132 35155ft 498kts
07-Jan-20 22:10 34.116614 -118.735773 131 35151ft 495kts
07-Jan-20 22:11 34.038007 -118.605283 132 35119ft 493kts
07-Jan-20 22:12 33.959987 -118.476237 132 35110ft 493kts
07-Jan-20 22:13 33.882183 -118.365895 139 34659ft 486kts
07-Jan-20 22:14 33.795798 -118.254237 139 31772ft 494kts
07-Jan-20 22:15 33.697848 -118.126028 137 28292ft 501kts
07-Jan-20 22:16 33.601816 -118.000104 137 24984ft 497kts
07-Jan-20 22:17 33.508348 -117.884081 140 22428ft 477kts
07-Jan-20 22:18 33.414161 -117.777275 142 19878ft 457kts
07-Jan-20 22:19 33.324120 -117.681085 141 17420ft 440kts
07-Jan-20 22:20 33.234967 -117.586229 141 14841ft 423kts
07-Jan-20 22:21 33.148411 -117.495254 141 12258ft 406kts
07-Jan-20 22:22 33.060649 -117.419717 147 10714ft 362kts
07-Jan-20 22:23 32.984529 -117.355883 146 10039ft 310kts
07-Jan-20 22:24 32.919092 -117.301075 146 9443ft 269kts
07-Jan-20 22:25 32.860019 -117.252002 146 8349ft 261kts
07-Jan-20 22:26 32.808519 -117.198096 105 7432ft 250kts
07-Jan-20 22:27 32.791308 -117.120464 104 6377ft 241kts
07-Jan-20 22:28 32.775051 -117.048099 105 5966ft 214kts
07-Jan-20 22:29 32.759088 -116.983052 108 5379ft 202kts
07-Jan-20 22:30 32.713899 -116.956612 200 4595ft 198kts
07-Jan-20 22:31 32.689797 -117.007613 286 3816ft 191kts
07-Jan-20 22:32 32.703387 -117.063877 286 2937ft 151kts
07-Jan-20 22:33 32.714089 -117.108169 285 1558ft 137kts
07-Jan-20 22:34 32.724067 -117.150172 286 704ft 134kts
07-Jan-20 22:35 32.733719 -117.190293 286 26ft 90kts
07-Jan-20 22:36 32.735084 -117.198343 249 26ft 5kts
07-Jan-20 22:37 32.734615 -117.199434 217 26ft 5kts
07-Jan-20 22:38 32.733040 -117.199705 147 26ft 4kts
07-Jan-20 22:39 32.732335 -117.199470 182 26ft 0kts
07-Jan-20 22:40 32.732323 -117.199470 182 26ft 0kts

Navigation Log

Ident Type
Flight plan parsing failed, navigation log unavailable